createdAt,value
2018-07-25T05:20:42.926Z,20
2018-07-25T05:21:03.076Z,20
2018-07-25T05:21:23.222Z,20
2018-07-25T05:21:43.349Z,20
2018-07-25T05:22:03.492Z,20
2018-07-25T05:22:23.630Z,20
2018-07-25T05:22:43.800Z,20
2018-07-25T05:23:03.963Z,25
2018-07-25T05:23:24.265Z,25
2018-07-25T05:23:44.327Z,25
2018-07-25T05:24:04.490Z,25
2018-07-25T05:24:24.690Z,25
2018-07-25T05:24:44.837Z,25
2018-07-25T05:25:04.997Z,25
2018-07-25T05:25:25.160Z,25
2018-07-25T05:25:45.291Z,25
2018-07-25T05:26:05.437Z,25
2018-07-25T05:26:25.595Z,20
2018-07-25T05:26:45.715Z,20
2018-07-25T05:27:05.872Z,20
2018-07-25T05:27:26.021Z,20
2018-07-25T05:27:46.186Z,20
2018-07-25T05:28:06.341Z,20
2018-07-25T05:28:26.486Z,20
2018-07-25T05:28:46.656Z,20
2018-07-25T05:29:06.818Z,20
2018-07-25T05:29:26.960Z,20
2018-07-25T05:29:47.108Z,20
2018-07-25T05:30:07.311Z,20
2018-07-25T05:30:27.410Z,20
2018-07-25T05:48:49.794Z,20
2018-07-25T05:49:09.960Z,20
2018-07-25T05:49:30.180Z,20
2018-07-25T05:49:50.248Z,20
2018-07-25T05:50:10.412Z,20
2018-07-25T05:50:30.564Z,20
2018-07-25T05:50:50.721Z,20
2018-07-25T05:51:10.896Z,20
2018-07-25T05:51:31.046Z,20
2018-07-25T05:51:51.215Z,20
2018-07-25T05:52:11.378Z,20
2018-07-25T05:52:31.525Z,20
2018-07-25T05:52:51.677Z,20
2018-07-25T05:53:11.817Z,20
2018-07-25T05:53:31.995Z,20
2018-07-25T05:53:52.148Z,20
2018-07-25T05:54:12.304Z,20
2018-07-25T05:54:32.776Z,20
2018-07-25T05:54:52.925Z,20
2018-07-25T05:55:13.045Z,20
2018-07-25T05:55:33.198Z,20
2018-07-25T05:55:53.370Z,20
2018-07-25T05:56:13.520Z,20
2018-07-25T05:56:33.670Z,20
2018-07-25T05:56:53.845Z,20
2018-07-25T05:57:13.978Z,20
2018-07-25T05:57:34.147Z,20
2018-07-25T05:57:54.332Z,20
2018-07-25T05:58:14.485Z,20
2018-07-25T05:58:34.659Z,20
2018-07-25T05:58:54.900Z,20
2018-07-25T05:59:15.057Z,20
2018-07-25T05:59:35.207Z,20
2018-07-25T05:59:55.364Z,20
2018-07-25T06:00:15.508Z,20
2018-07-25T06:00:35.698Z,20
2018-07-25T06:00:55.849Z,20
2018-07-25T06:01:15.986Z,20
2018-07-25T06:01:36.146Z,20
2018-07-25T06:01:56.353Z,20
2018-07-25T06:02:16.502Z,20
2018-07-25T06:02:36.640Z,20
2018-07-25T06:02:56.818Z,20
2018-07-25T06:03:16.979Z,20
2018-07-25T06:03:37.105Z,20
2018-07-25T06:03:57.285Z,20
2018-07-25T06:04:17.528Z,20
2018-07-25T06:04:37.650Z,20
2018-07-25T06:04:57.779Z,20
2018-07-25T06:05:17.952Z,20
2018-07-25T06:05:38.107Z,20
2018-07-25T06:05:58.264Z,20
2018-07-25T06:06:18.474Z,20
2018-07-25T06:06:38.633Z,20
2018-07-25T06:06:58.823Z,20
2018-07-25T06:07:18.978Z,20
2018-07-25T06:07:39.135Z,20
2018-07-25T06:07:59.296Z,20
2018-07-25T06:08:19.454Z,20
2018-07-25T06:08:39.648Z,20
2018-07-25T06:08:59.836Z,20
2018-07-25T06:09:20.002Z,20
2018-07-25T06:09:40.160Z,20
2018-07-25T06:10:00.326Z,20
2018-07-25T06:10:20.486Z,20
2018-07-25T06:10:40.680Z,20
2018-07-25T06:11:00.842Z,20
2018-07-25T06:11:20.998Z,20
2018-07-25T06:11:41.144Z,20
2018-07-25T06:12:01.331Z,20
2018-07-25T06:12:21.483Z,20
2018-07-25T06:12:41.638Z,20
2018-07-25T06:13:01.807Z,20
2018-07-25T06:13:21.952Z,20
2018-07-25T06:13:42.136Z,20
2018-07-25T06:14:02.312Z,20
2018-07-25T06:14:22.493Z,20
2018-07-25T06:14:42.622Z,20
2018-07-25T06:15:02.793Z,20
2018-07-25T06:15:22.939Z,20
2018-07-25T06:15:43.099Z,20
2018-07-25T06:16:03.283Z,20
2018-07-25T06:16:23.440Z,20
2018-07-25T06:16:43.603Z,20
2018-07-25T06:17:03.778Z,20
2018-07-25T06:17:23.939Z,20
2018-07-25T06:17:44.102Z,20
2018-07-25T06:18:04.278Z,20
2018-07-25T06:18:24.433Z,20
2018-07-25T06:18:44.591Z,20
2018-07-25T06:19:04.718Z,20
2018-07-25T06:19:24.892Z,20
2018-07-25T06:19:45.061Z,20
2018-07-25T06:20:05.199Z,20
2018-07-25T06:20:25.465Z,20
2018-07-25T06:20:45.549Z,20
2018-07-25T06:21:05.697Z,20
2018-07-25T06:21:25.841Z,20
2018-07-25T06:21:45.977Z,20
2018-07-25T06:22:06.114Z,20
2018-07-25T06:22:26.244Z,25
2018-07-25T06:22:46.371Z,25
2018-07-25T06:23:06.523Z,25
2018-07-25T06:23:26.640Z,25
2018-07-25T06:23:46.779Z,25
2018-07-25T06:24:06.938Z,25
2018-07-25T06:24:27.131Z,25
2018-07-25T06:24:47.278Z,25
2018-07-25T06:25:07.460Z,25
2018-07-25T06:25:27.659Z,25
2018-07-25T06:25:47.824Z,25
2018-07-25T06:26:08.003Z,25
2018-07-25T06:26:28.120Z,25
2018-07-25T06:26:48.279Z,25
2018-07-25T06:27:08.428Z,25
2018-07-25T06:27:28.588Z,25
2018-07-25T06:27:48.741Z,25
2018-07-25T06:28:08.896Z,25
2018-07-25T06:28:29.063Z,25
2018-07-25T06:28:49.256Z,25
2018-07-25T06:29:09.389Z,25
2018-07-25T06:29:29.514Z,25
2018-07-25T06:29:49.654Z,25
2018-07-25T06:30:09.791Z,25
2018-07-25T06:30:29.922Z,25
2018-07-25T06:30:50.081Z,25
2018-07-25T06:31:10.295Z,25
2018-07-25T06:31:30.402Z,25
2018-07-25T06:31:50.570Z,25
2018-07-25T06:32:10.723Z,25
2018-07-25T06:32:30.880Z,25
2018-07-25T06:32:51.028Z,20
2018-07-25T06:33:11.185Z,20
2018-07-25T06:33:31.358Z,20
2018-07-25T06:33:51.520Z,20
2018-07-25T06:34:11.675Z,25
2018-07-25T06:34:31.834Z,25
2018-07-25T06:34:52.145Z,25
2018-07-25T06:35:12.241Z,25
2018-07-25T06:35:32.403Z,25
2018-07-25T06:35:52.567Z,20
2018-07-25T06:36:12.719Z,25
2018-07-25T06:36:32.889Z,25
2018-07-25T06:36:53.042Z,25
2018-07-25T06:37:13.327Z,25
2018-07-25T06:37:33.474Z,25
2018-07-25T06:37:53.633Z,25
2018-07-25T06:38:13.923Z,25
2018-07-25T06:38:34.085Z,25
2018-07-25T06:38:54.249Z,25
2018-07-25T06:39:14.394Z,25
2018-07-25T06:39:34.543Z,25
2018-07-25T06:39:54.684Z,25
2018-07-25T06:40:14.895Z,25
2018-07-25T06:40:35.029Z,25
2018-07-25T06:40:55.175Z,25
2018-07-25T06:41:15.357Z,25
2018-07-25T06:41:35.515Z,25
2018-07-25T06:41:55.658Z,25
2018-07-25T06:42:15.828Z,25
2018-07-25T06:42:36.007Z,25
2018-07-25T06:42:56.163Z,25
2018-07-25T06:43:16.358Z,25
2018-07-25T06:43:36.572Z,25
2018-07-25T06:43:56.684Z,25
2018-07-25T06:44:16.849Z,25
2018-07-25T06:44:37.017Z,25
2018-07-25T06:44:57.146Z,25
2018-07-25T06:45:17.298Z,25
2018-07-25T06:45:37.456Z,25
2018-07-25T06:45:57.644Z,25
2018-07-25T06:46:17.804Z,25
2018-07-25T06:46:37.947Z,25
2018-07-25T06:46:58.084Z,25
2018-07-25T06:47:18.251Z,25
2018-07-25T06:47:38.408Z,25
2018-07-25T06:47:58.574Z,25
2018-07-25T06:48:18.719Z,25
2018-07-25T06:48:38.923Z,25
2018-07-25T06:48:59.100Z,25
2018-07-25T06:49:19.245Z,25
2018-07-25T06:49:39.403Z,25
2018-07-25T06:49:59.569Z,30
2018-07-25T06:50:19.733Z,30
2018-07-25T06:50:39.946Z,30
2018-07-25T06:51:00.055Z,30
2018-07-25T06:51:20.221Z,30
2018-07-25T06:51:40.362Z,30
2018-07-25T06:52:00.538Z,30
2018-07-25T06:52:20.731Z,30
2018-07-25T06:52:40.890Z,30
2018-07-25T06:53:01.086Z,30
2018-07-25T06:53:21.232Z,30
2018-07-25T06:53:41.409Z,30
2018-07-25T06:54:01.535Z,30
2018-07-25T06:54:21.739Z,30
2018-07-25T06:54:41.903Z,30
2018-07-25T06:55:02.059Z,30
2018-07-25T06:55:22.244Z,30
2018-07-25T06:55:42.396Z,30
2018-07-25T06:56:02.541Z,30
2018-07-25T06:56:22.691Z,30
2018-07-25T06:56:42.824Z,30
2018-07-25T06:57:02.974Z,30
2018-07-25T06:57:23.202Z,30
2018-07-25T06:57:43.278Z,30
2018-07-25T06:58:03.432Z,30
2018-07-25T06:58:23.589Z,30
2018-07-25T06:58:43.761Z,30
2018-07-25T06:59:03.909Z,30
2018-07-25T06:59:24.057Z,30
2018-07-25T06:59:44.216Z,30
2018-07-25T07:00:04.374Z,30
2018-07-25T07:00:24.540Z,30
2018-07-25T07:00:44.692Z,30
2018-07-25T07:01:04.836Z,30
2018-07-25T07:01:25.009Z,30
2018-07-25T07:01:45.173Z,30
2018-07-25T07:02:05.335Z,30
2018-07-25T07:02:25.494Z,30
2018-07-25T07:02:45.648Z,30
2018-07-25T07:03:05.814Z,30
2018-07-25T07:03:25.955Z,30
2018-07-25T07:03:46.119Z,30
2018-07-25T07:04:06.287Z,30
2018-07-25T07:04:26.427Z,30
2018-07-25T07:04:46.627Z,30
2018-07-25T07:05:06.743Z,35
2018-07-25T07:05:26.899Z,35
2018-07-25T07:05:47.044Z,35
2018-07-25T07:06:07.198Z,35
2018-07-25T07:06:27.389Z,35
2018-07-25T07:06:47.682Z,35
2018-07-25T07:07:07.880Z,35
2018-07-25T07:07:28.050Z,35
2018-07-25T07:07:48.215Z,35
2018-07-25T07:08:08.423Z,35
2018-07-25T07:08:28.625Z,35
2018-07-25T07:08:48.796Z,35
2018-07-25T07:09:09.003Z,35
2018-07-25T07:09:29.155Z,35
2018-07-25T07:09:49.292Z,35
2018-07-25T07:10:09.439Z,35
2018-07-25T07:10:29.624Z,40
2018-07-25T07:10:49.771Z,40
2018-07-25T07:11:09.902Z,40
2018-07-25T07:11:30.116Z,40
2018-07-25T07:11:50.283Z,40
2018-07-25T07:12:10.518Z,40
2018-07-25T07:12:30.593Z,40
2018-07-25T07:12:50.760Z,40
2018-07-25T07:13:10.948Z,40
2018-07-25T07:13:31.143Z,40
2018-07-25T07:13:51.300Z,35
2018-07-25T07:14:11.518Z,35
2018-07-25T07:14:31.682Z,35
2018-07-25T07:14:51.832Z,35
2018-07-25T07:15:12.031Z,35
2018-07-25T07:15:32.140Z,30
2018-07-25T07:15:52.274Z,25
2018-07-25T07:16:12.451Z,25
2018-07-25T07:16:32.612Z,30
2018-07-25T07:16:52.760Z,25
2018-07-25T07:17:12.895Z,25
2018-07-25T07:17:33.143Z,25
2018-07-25T07:17:53.194Z,25
2018-07-25T07:18:13.363Z,35
2018-07-25T07:18:33.531Z,30
2018-07-25T07:18:53.667Z,30
2018-07-25T07:19:13.819Z,30
2018-07-25T07:19:33.967Z,30
2018-07-25T07:19:54.141Z,30
2018-07-25T07:20:14.305Z,30
2018-07-25T07:20:34.465Z,30
2018-07-25T07:20:54.620Z,35
2018-07-25T07:21:14.784Z,35
2018-07-25T07:21:34.938Z,30
2018-07-25T07:21:55.127Z,35
2018-07-25T07:22:15.286Z,30
2018-07-25T07:22:35.458Z,30
2018-07-25T07:22:55.625Z,30
2018-07-25T07:23:15.774Z,30
2018-07-25T07:23:35.936Z,35
2018-07-25T07:23:56.123Z,35
2018-07-25T07:24:16.301Z,35
2018-07-25T07:24:36.454Z,35
2018-07-25T07:24:56.595Z,40
2018-07-25T07:25:16.725Z,35
2018-07-25T07:25:36.878Z,35
2018-07-25T07:25:57.088Z,40
2018-07-25T07:26:17.215Z,35
2018-07-25T07:26:37.403Z,40
2018-07-25T07:26:57.550Z,40
2018-07-25T07:27:17.731Z,40
2018-07-25T07:27:37.887Z,40
2018-07-25T07:27:58.032Z,45
2018-07-25T07:28:18.182Z,45
2018-07-25T07:28:38.331Z,45
2018-07-25T07:28:58.506Z,50
2018-07-25T07:29:18.663Z,50
2018-07-25T07:29:38.825Z,45
2018-07-25T07:29:58.961Z,45
2018-07-25T07:30:19.116Z,45
2018-07-25T07:30:39.288Z,45
2018-07-25T07:30:59.490Z,45
2018-07-25T07:31:19.686Z,45
2018-07-25T07:31:39.853Z,45
2018-07-25T07:32:00.026Z,50
2018-07-25T07:32:20.203Z,50
2018-07-25T07:32:40.368Z,55
2018-07-25T07:33:00.544Z,55
2018-07-25T07:33:20.722Z,65
2018-07-25T07:33:40.883Z,60
2018-07-25T07:34:01.034Z,60
2018-07-25T07:34:21.195Z,55
2018-07-25T07:34:41.354Z,55
2018-07-25T07:35:01.523Z,55
2018-07-25T07:35:21.692Z,55
2018-07-25T07:35:41.880Z,50
2018-07-25T07:36:02.031Z,50
2018-07-25T07:36:22.184Z,50
2018-07-25T07:36:42.360Z,50
2018-07-25T07:37:02.489Z,50
2018-07-25T07:37:22.771Z,55
2018-07-25T07:37:42.886Z,50
2018-07-25T07:38:02.999Z,50
2018-07-25T07:38:23.123Z,55
2018-07-25T07:38:43.286Z,55
2018-07-25T07:39:03.450Z,55
2018-07-25T07:39:23.634Z,55
2018-07-25T07:39:43.830Z,50
2018-07-25T07:40:03.993Z,50
2018-07-25T07:40:24.172Z,50
2018-07-25T07:40:44.347Z,50
2018-07-25T07:41:04.512Z,50
2018-07-25T07:41:24.700Z,50
2018-07-25T07:41:44.907Z,50
2018-07-25T07:42:05.044Z,50
2018-07-25T07:42:25.248Z,45
2018-07-25T07:42:45.419Z,45
2018-07-25T07:43:05.558Z,45
2018-07-25T07:43:25.717Z,45
2018-07-25T07:43:45.890Z,45
2018-07-25T07:44:06.169Z,45
2018-07-25T07:44:26.207Z,45
2018-07-25T07:44:46.343Z,45
2018-07-25T07:45:06.512Z,45
2018-07-25T07:45:26.693Z,40
2018-07-25T07:45:46.856Z,40
2018-07-25T07:46:07.019Z,40
2018-07-25T07:46:27.180Z,45
2018-07-25T07:46:47.336Z,50
2018-07-25T07:47:07.466Z,40
2018-07-25T07:47:27.632Z,35
2018-07-25T07:47:47.863Z,35
2018-07-25T07:48:07.944Z,35
2018-07-25T07:48:28.105Z,35
2018-07-25T07:48:48.260Z,35
2018-07-25T07:49:08.403Z,35
2018-07-25T07:49:28.615Z,35
2018-07-25T07:49:48.779Z,40
2018-07-25T07:50:08.937Z,40
2018-07-25T07:50:29.103Z,40
2018-07-25T07:50:49.272Z,40
2018-07-25T07:51:09.431Z,40
2018-07-25T07:51:29.603Z,40
2018-07-25T07:51:49.748Z,40
2018-07-25T07:52:09.902Z,40
2018-07-25T07:52:30.043Z,40
2018-07-25T07:52:50.193Z,40
2018-07-25T07:53:10.338Z,40
2018-07-25T07:53:30.468Z,40
2018-07-25T07:53:50.657Z,40
2018-07-25T07:54:10.905Z,40
2018-07-25T07:54:31.099Z,40
2018-07-25T07:54:51.291Z,40
2018-07-25T07:55:11.456Z,40
2018-07-25T07:55:31.626Z,40
2018-07-25T07:55:51.779Z,40
2018-07-25T07:56:11.941Z,40
2018-07-25T07:56:32.156Z,40
2018-07-25T07:56:52.276Z,40
2018-07-25T07:57:12.431Z,45
2018-07-25T07:57:32.638Z,45
2018-07-25T07:57:52.783Z,45
2018-07-25T07:58:13.002Z,45
2018-07-25T07:58:33.165Z,45
2018-07-25T07:58:53.330Z,45
2018-07-25T07:59:13.589Z,45
2018-07-25T07:59:33.812Z,45
2018-07-25T07:59:53.925Z,50
2018-07-25T08:00:14.108Z,50
2018-07-25T08:00:34.239Z,45
2018-07-25T08:00:54.439Z,50
2018-07-25T08:01:14.614Z,50
2018-07-25T08:01:34.769Z,45
2018-07-25T08:01:54.890Z,45
2018-07-25T08:02:15.052Z,45
2018-07-25T08:02:35.183Z,40
2018-07-25T08:02:55.396Z,40
2018-07-25T08:03:15.572Z,40
2018-07-25T08:03:35.804Z,40
2018-07-25T08:03:55.979Z,40
2018-07-25T08:04:16.143Z,40
2018-07-25T08:04:36.283Z,40
2018-07-25T08:04:56.466Z,45
2018-07-25T08:05:16.639Z,45
2018-07-25T08:05:36.797Z,45
2018-07-25T08:05:56.931Z,45
2018-07-25T08:06:17.119Z,45
2018-07-25T08:06:37.302Z,45
2018-07-25T08:06:57.475Z,45
2018-07-25T08:07:17.637Z,45
2018-07-25T08:07:37.805Z,45
2018-07-25T08:07:57.943Z,45
2018-07-25T08:08:18.123Z,45
2018-07-25T08:08:38.302Z,45
2018-07-25T08:08:58.454Z,45
2018-07-25T08:09:18.600Z,45
2018-07-25T08:09:38.761Z,45
2018-07-25T08:09:58.898Z,50
2018-07-25T08:10:19.110Z,50
2018-07-25T08:10:39.334Z,50
2018-07-25T08:10:59.448Z,50
2018-07-25T08:11:19.582Z,50
2018-07-25T08:11:39.773Z,55
2018-07-25T08:11:59.940Z,45
2018-07-25T08:12:20.090Z,45
2018-07-25T08:12:40.247Z,55
2018-07-25T08:13:00.407Z,60
2018-07-25T08:13:20.571Z,45
2018-07-25T08:13:40.743Z,60
2018-07-25T08:14:00.917Z,60
2018-07-25T08:14:21.073Z,60
2018-07-25T08:14:41.225Z,60
2018-07-25T08:15:01.409Z,65
2018-07-25T08:15:21.571Z,65
2018-07-25T08:15:41.742Z,60
2018-07-25T08:16:01.891Z,60
2018-07-25T08:16:22.038Z,60
2018-07-25T08:16:42.231Z,50
2018-07-25T08:17:02.381Z,55
2018-07-25T08:17:22.518Z,60
2018-07-25T08:17:42.776Z,50
2018-07-25T08:18:02.923Z,55
2018-07-25T08:18:23.112Z,55
2018-07-25T08:18:43.311Z,55
2018-07-25T08:19:03.521Z,50
2018-07-25T08:19:23.685Z,50
2018-07-25T08:19:43.907Z,45
2018-07-25T08:20:04.100Z,45
2018-07-25T08:20:24.291Z,45
2018-07-25T08:20:44.442Z,45
2018-07-25T08:21:04.658Z,40
2018-07-25T08:21:24.812Z,40
2018-07-25T08:21:44.979Z,40
2018-07-25T08:22:05.153Z,40
2018-07-25T08:22:25.298Z,40
2018-07-25T08:22:45.457Z,40
2018-07-25T08:23:05.628Z,40
2018-07-25T08:23:25.781Z,45
2018-07-25T08:23:45.986Z,45
2018-07-25T08:24:06.144Z,45
2018-07-25T08:24:26.389Z,45
2018-07-25T08:24:46.546Z,45
2018-07-25T08:25:06.714Z,45
2018-07-25T08:25:26.856Z,45
2018-07-25T08:25:47.108Z,45
2018-07-25T08:26:07.217Z,45
2018-07-25T08:26:27.427Z,45
2018-07-25T08:26:47.600Z,45
2018-07-25T08:27:07.741Z,45
2018-07-25T08:27:27.874Z,45
2018-07-25T08:27:48.032Z,45
2018-07-25T08:28:08.190Z,50
2018-07-25T08:28:28.353Z,50
2018-07-25T08:28:48.504Z,50
2018-07-25T08:29:08.658Z,45
2018-07-25T08:29:28.809Z,45
2018-07-25T08:29:48.983Z,45
2018-07-25T08:30:09.146Z,45
2018-07-25T08:30:29.343Z,45
2018-07-25T08:30:49.503Z,40
2018-07-25T08:31:09.673Z,40
2018-07-25T08:31:29.813Z,35
2018-07-25T08:31:49.965Z,40
2018-07-25T08:32:10.131Z,40
2018-07-25T08:32:30.326Z,45
2018-07-25T08:32:50.470Z,45
2018-07-25T08:33:10.626Z,45
2018-07-25T08:33:30.804Z,45
2018-07-25T08:33:50.977Z,45
2018-07-25T08:34:11.143Z,45
2018-07-25T08:34:31.380Z,45
2018-07-25T08:34:51.552Z,45
2018-07-25T08:35:11.661Z,45
2018-07-25T08:35:31.818Z,45
2018-07-25T08:35:51.984Z,45
2018-07-25T08:36:12.157Z,40
2018-07-25T08:36:32.323Z,40
2018-07-25T08:36:52.482Z,40
2018-07-25T08:37:12.640Z,40
2018-07-25T08:37:32.807Z,25
2018-07-25T08:37:52.973Z,25
2018-07-25T08:38:13.156Z,25
2018-07-25T08:38:33.327Z,25
2018-07-25T08:38:53.489Z,25
2018-07-25T08:39:13.653Z,25
2018-07-25T08:39:34.827Z,25
2018-07-25T08:39:56.399Z,25
2018-07-25T08:40:17.146Z,30
2018-07-25T08:40:38.393Z,30
2018-07-25T08:40:59.667Z,30
2018-07-25T08:41:20.501Z,30
2018-07-25T08:41:40.693Z,30
2018-07-25T08:42:00.833Z,35
2018-07-25T08:42:20.988Z,35
2018-07-25T08:42:41.156Z,35
2018-07-25T08:43:01.315Z,35
2018-07-25T08:43:21.480Z,35
2018-07-25T08:43:41.667Z,35
2018-07-25T08:44:01.826Z,35
2018-07-25T08:44:22.023Z,35
2018-07-25T08:44:42.161Z,35
2018-07-25T08:45:02.325Z,35
2018-07-25T08:45:22.489Z,35
2018-07-25T08:45:42.664Z,35
2018-07-25T08:46:02.795Z,30
2018-07-25T08:46:22.965Z,30
2018-07-25T08:46:43.205Z,35
2018-07-25T08:47:03.299Z,50
2018-07-25T08:47:23.478Z,50
2018-07-25T08:47:43.653Z,35
2018-07-25T08:48:03.780Z,35
2018-07-25T08:48:23.951Z,30
2018-07-25T08:48:44.154Z,35
2018-07-25T08:49:04.351Z,35
2018-07-25T08:49:24.506Z,50
2018-07-25T08:49:44.658Z,50
2018-07-25T08:50:04.794Z,50
2018-07-25T08:50:24.931Z,50
2018-07-25T08:50:45.090Z,50
2018-07-25T08:51:05.235Z,50
2018-07-25T08:51:25.394Z,50
2018-07-25T08:51:45.586Z,50
2018-07-25T08:52:05.746Z,50
2018-07-25T08:52:26.109Z,50
2018-07-25T08:52:46.425Z,50
2018-07-25T08:53:06.533Z,50
2018-07-25T08:53:26.685Z,50
2018-07-25T08:53:46.843Z,55
2018-07-25T08:54:07.052Z,55
2018-07-25T08:54:27.240Z,55
2018-07-25T08:54:47.367Z,55
2018-07-25T08:55:07.520Z,55
2018-07-25T08:55:27.677Z,55
2018-07-25T08:55:47.820Z,55
2018-07-25T08:56:07.998Z,55
2018-07-25T08:56:28.168Z,55
2018-07-25T08:56:48.316Z,50
2018-07-25T08:57:08.486Z,50
2018-07-25T08:57:28.644Z,50
2018-07-25T08:57:48.884Z,30
2018-07-25T08:58:09.022Z,50
2018-07-25T08:58:29.208Z,50
2018-07-25T08:58:49.370Z,50
2018-07-25T08:59:09.541Z,50
2018-07-25T08:59:29.702Z,50
2018-07-25T08:59:49.885Z,50
2018-07-25T09:00:10.026Z,50
2018-07-25T09:00:30.259Z,50
2018-07-25T09:00:50.435Z,35
2018-07-25T09:01:10.609Z,35
2018-07-25T09:01:30.727Z,30
2018-07-25T09:01:50.988Z,30
2018-07-25T09:02:11.112Z,30
2018-07-25T09:02:31.254Z,35
2018-07-25T09:02:51.425Z,35
2018-07-25T09:03:11.565Z,30
2018-07-25T09:03:31.709Z,35
2018-07-25T09:03:51.881Z,45
2018-07-25T09:04:12.083Z,50
2018-07-25T09:04:32.227Z,50
2018-07-25T09:04:52.375Z,45
2018-07-25T09:05:12.533Z,35
2018-07-25T09:05:32.718Z,45
2018-07-25T09:05:52.904Z,45
2018-07-25T09:06:13.075Z,35
2018-07-25T09:06:33.439Z,30
2018-07-25T09:06:53.517Z,25
2018-07-25T09:07:13.680Z,25
2018-07-25T09:07:33.913Z,25
2018-07-25T09:07:54.169Z,25
2018-07-25T09:08:14.317Z,25
2018-07-25T09:08:34.471Z,25
2018-07-25T09:08:54.643Z,25
2018-07-25T09:09:14.794Z,25
2018-07-25T09:09:34.965Z,25
2018-07-25T09:09:55.145Z,25
2018-07-25T09:10:15.304Z,25
2018-07-25T09:10:35.466Z,25
2018-07-25T09:10:55.614Z,25
2018-07-25T09:11:15.760Z,25
2018-07-25T09:11:35.873Z,20
2018-07-25T09:11:55.987Z,20
2018-07-25T09:12:16.156Z,20
2018-07-25T09:12:36.393Z,20
2018-07-25T09:12:56.647Z,20
2018-07-25T09:13:16.779Z,20
2018-07-25T09:13:36.989Z,20
2018-07-25T09:13:57.151Z,20
2018-07-25T09:14:17.327Z,20
2018-07-25T09:14:37.453Z,20
2018-07-25T09:14:57.604Z,20
2018-07-25T09:15:17.754Z,20
2018-07-25T09:15:37.932Z,20
2018-07-25T09:15:58.085Z,20
2018-07-25T09:16:18.277Z,25
2018-07-25T09:16:38.457Z,25
2018-07-25T09:16:58.715Z,25
2018-07-25T09:25:05.180Z,50
2018-07-25T09:25:25.446Z,50
2018-07-25T09:25:45.523Z,35
2018-07-25T09:26:05.688Z,45
2018-07-25T09:26:25.881Z,45
2018-07-25T09:26:46.088Z,40
2018-07-25T09:27:06.292Z,45
2018-07-25T09:27:26.436Z,35
2018-07-25T09:27:46.605Z,35
2018-07-25T09:28:06.760Z,35
2018-07-25T09:28:26.934Z,35
2018-07-25T09:28:47.111Z,35
2018-07-25T09:29:07.279Z,35
2018-07-25T09:29:27.457Z,35
2018-07-25T09:29:47.636Z,35
2018-07-25T09:30:07.802Z,35
2018-07-25T09:30:27.945Z,35
2018-07-25T09:30:48.131Z,35
2018-07-25T09:31:08.335Z,35
2018-07-25T09:31:28.495Z,35
2018-07-25T09:31:48.668Z,35
2018-07-25T09:32:08.891Z,35
2018-07-25T09:32:29.033Z,40
2018-07-25T09:32:49.187Z,55
2018-07-25T09:33:09.364Z,55
2018-07-25T09:33:29.575Z,40
2018-07-25T09:33:49.766Z,35
2018-07-25T09:34:09.991Z,35
2018-07-25T09:34:30.052Z,35
2018-07-25T09:34:50.204Z,35
2018-07-25T09:35:10.960Z,35
2018-07-25T09:35:31.135Z,35
2018-07-25T09:35:51.274Z,50
2018-07-25T09:36:11.465Z,50
2018-07-25T09:36:31.627Z,50
2018-07-25T09:36:51.822Z,45
2018-07-25T09:37:12.083Z,50
2018-07-25T09:37:32.277Z,50
2018-07-25T09:37:52.442Z,50
2018-07-25T09:38:12.568Z,35
2018-07-25T09:38:32.774Z,50
2018-07-25T09:38:52.970Z,45
2018-07-25T09:39:13.132Z,45
2018-07-25T09:39:33.304Z,45
2018-07-25T09:39:53.488Z,45
2018-07-25T09:40:13.651Z,45
2018-07-25T09:40:33.789Z,25
2018-07-25T09:40:54.008Z,25
2018-07-25T09:41:14.119Z,25
2018-07-25T09:41:34.246Z,25
2018-07-25T09:41:54.417Z,25
2018-07-25T09:42:14.598Z,25
2018-07-25T09:42:34.786Z,25
2018-07-25T09:42:54.959Z,25
2018-07-25T09:43:15.143Z,25
2018-07-25T09:43:35.310Z,25
2018-07-25T09:43:55.480Z,25
2018-07-25T09:44:15.641Z,25
2018-07-25T09:44:36.466Z,25
2018-07-25T09:44:56.613Z,25
2018-07-25T09:45:16.777Z,25
2018-07-25T09:45:37.536Z,25
2018-07-25T09:45:57.695Z,25
2018-07-25T09:46:17.891Z,25
2018-07-25T09:46:38.234Z,25
2018-07-25T09:46:58.459Z,25
2018-07-25T09:47:18.595Z,25
2018-07-25T09:47:38.790Z,25
2018-07-25T09:47:58.967Z,25
2018-07-25T09:48:19.138Z,25
2018-07-25T09:48:39.285Z,25
2018-07-25T09:48:59.441Z,25
2018-07-25T09:49:19.611Z,30
2018-07-25T09:49:39.832Z,30
2018-07-25T09:50:00.001Z,30
2018-07-25T09:57:10.888Z,55
2018-07-25T09:57:31.097Z,55
2018-07-25T09:57:51.266Z,55
2018-07-25T09:58:11.411Z,55
2018-07-25T09:58:31.620Z,55
2018-07-25T09:58:51.920Z,55
2018-07-25T09:59:11.997Z,55
2018-07-25T09:59:32.180Z,55
2018-07-25T09:59:52.345Z,60
2018-07-25T10:00:12.523Z,60
2018-07-25T10:00:32.672Z,60
2018-07-25T10:00:52.836Z,60
2018-07-25T10:01:13.124Z,60
2018-07-25T10:01:33.300Z,60
2018-07-25T10:01:53.483Z,60
2018-07-25T10:02:13.656Z,60
2018-07-25T10:02:33.877Z,60
2018-07-25T10:02:54.060Z,60
2018-07-25T10:03:14.227Z,60
2018-07-25T10:03:34.384Z,60
2018-07-25T10:03:54.590Z,65
2018-07-25T10:04:15.446Z,65
2018-07-25T10:04:35.593Z,50
2018-07-25T10:04:55.754Z,50
2018-07-25T10:05:15.918Z,50
2018-07-25T10:05:36.079Z,55
2018-07-25T10:05:56.255Z,55
2018-07-25T10:06:16.425Z,55
2018-07-25T10:06:36.638Z,55
2018-07-25T10:06:56.797Z,55
2018-07-25T10:07:17.030Z,55
2018-07-25T10:07:37.187Z,60
2018-07-25T10:07:57.611Z,80
2018-07-25T10:08:17.746Z,75
2018-07-25T10:08:37.932Z,70
2018-07-25T10:08:58.122Z,60
2018-07-25T10:09:18.360Z,55
2018-07-25T10:09:38.497Z,55
2018-07-25T10:09:58.647Z,55
2018-07-25T10:10:18.861Z,75
2018-07-25T10:10:39.084Z,70
2018-07-25T10:10:59.259Z,75
2018-07-25T10:11:19.477Z,70
2018-07-25T10:11:39.703Z,70
2018-07-25T10:11:59.937Z,65
2018-07-25T10:12:20.094Z,65
2018-07-25T10:12:40.257Z,60
2018-07-25T10:13:00.421Z,50
2018-07-25T10:13:20.625Z,50
2018-07-25T10:13:40.776Z,40
2018-07-25T10:14:00.991Z,40
2018-07-25T10:14:21.186Z,55
2018-07-25T10:14:41.366Z,40
2018-07-25T10:15:01.557Z,40
2018-07-25T10:15:21.681Z,40
2018-07-25T10:15:41.868Z,40
2018-07-25T10:16:02.032Z,40
2018-07-25T10:16:22.268Z,45
2018-07-25T10:16:42.475Z,45
2018-07-25T10:17:02.696Z,45
2018-07-25T10:17:22.977Z,45
2018-07-25T10:17:43.243Z,40
2018-07-25T10:18:03.439Z,40
2018-07-25T10:18:23.592Z,40
2018-07-25T10:18:43.751Z,40
2018-07-25T10:19:03.976Z,40
2018-07-25T10:19:24.221Z,40
2018-07-25T10:19:44.381Z,40
2018-07-25T10:20:04.600Z,40
2018-07-25T10:20:24.775Z,40
2018-07-25T10:20:45.001Z,50
2018-07-25T10:21:05.154Z,60
2018-07-25T10:21:25.320Z,60
2018-07-25T10:21:45.539Z,60
2018-07-25T10:22:05.677Z,60
2018-07-25T10:22:25.871Z,60
2018-07-25T10:22:46.082Z,60
2018-07-25T10:23:06.261Z,60
2018-07-25T10:23:26.430Z,60
2018-07-25T10:23:46.654Z,60
2018-07-25T10:24:07.254Z,55
2018-07-25T10:24:27.541Z,55
2018-07-25T10:24:47.737Z,55
2018-07-25T10:25:07.913Z,55
2018-07-25T10:25:28.059Z,35
2018-07-25T10:25:48.270Z,35
2018-07-25T10:26:08.478Z,35
2018-07-25T10:26:28.662Z,35
2018-07-25T10:26:48.889Z,35
2018-07-25T10:27:09.817Z,30
2018-07-25T10:27:31.437Z,30
2018-07-25T10:27:52.137Z,35
2018-07-25T10:28:12.402Z,55
2018-07-25T10:28:33.008Z,55
2018-07-25T10:28:53.272Z,55
2018-07-25T10:29:13.500Z,55
2018-07-25T10:29:33.709Z,55
2018-07-25T10:29:54.168Z,55
2018-07-25T10:30:14.558Z,60
2018-07-25T10:30:34.769Z,60
2018-07-25T10:30:55.608Z,60
2018-07-25T10:31:15.878Z,60
2018-07-25T10:31:37.192Z,60
2018-07-25T10:31:57.361Z,60
2018-07-25T10:32:17.840Z,60
2018-07-25T10:32:38.210Z,60
2018-07-25T10:32:58.495Z,65
2018-07-25T10:33:19.957Z,65
2018-07-25T10:33:40.285Z,65
2018-07-25T10:34:00.590Z,65
2018-07-25T10:34:20.941Z,60
2018-07-25T10:34:41.344Z,60
2018-07-25T10:35:01.569Z,60
2018-07-25T10:35:22.742Z,55
2018-07-25T10:35:43.056Z,55
2018-07-25T10:36:03.270Z,50
2018-07-25T10:36:23.561Z,50
2018-07-25T10:36:43.973Z,50
2018-07-25T10:37:04.263Z,50
2018-07-25T10:37:24.562Z,50
2018-07-25T10:37:45.018Z,50
2018-07-25T10:38:05.289Z,50
2018-07-25T10:38:25.602Z,35
2018-07-25T10:38:46.753Z,30
2018-07-25T10:39:07.355Z,30
2018-07-25T10:39:27.551Z,30
2018-07-25T10:39:47.760Z,35
2018-07-25T10:40:08.094Z,25
2018-07-25T10:40:28.453Z,25
2018-07-25T10:40:48.842Z,25
2018-07-25T10:41:09.148Z,35